Time;durP1;ratioP1;P1;durP2;ratioP2;P2;SDS_P1;SDS_P2;PMS_P1;PMS_P2;Temp;Humidity;BMP_temperature;BMP_pressure;BME280_temperature;BME280_humidity;BME280_pressure;Samples;Min_cycle;Max_cycle;Signal;HPM_P1;HPM_P2
2023/06/26 00:05:35;;;;;;;9.9;5.7;;;;;;;15.89;75.9;;;;;
2023/06/26 00:16:35;;;;;;;9.9;5.7;;;;;;;15.57;77.96;;;;;
2023/06/26 00:26:35;;;;;;;9.9;5.7;;;;;;;15.2;78.65;;;;;
2023/06/26 00:37:35;;;;;;;9.7;5.4;;;;;;;14.9;80.3;;;;;
2023/06/26 00:47:35;;;;;;;9.7;5.4;;;;;;;15.05;81.95;;;;;
2023/06/26 00:57:35;;;;;;;9;5.9;;;;;;;15.03;80.47;;;;;
2023/06/26 01:07:36;;;;;;;9;5.9;;;;;;;14.88;80.29;;;;;
2023/06/26 01:18:35;;;;;;;9;5.9;;;;;;;14.74;81.59;;;;;
2023/06/26 01:29:35;;;;;;;8.4;6.3;;;;;;;14.79;81.02;;;;;
2023/06/26 01:39:35;;;;;;;8.4;6.3;;;;;;;14.7;81.33;;;;;
2023/06/26 01:50:36;;;;;;;8.4;6.3;;;;;;;14.49;81.03;;;;;
2023/06/26 02:00:35;;;;;;;9.6;6.3;;;;;;;14.33;81.72;;;;;
2023/06/26 02:10:35;;;;;;;9.6;6.3;;;;;;;14.26;82.41;;;;;
2023/06/26 02:21:35;;;;;;;9.6;6.3;;;;;;;14.48;83.26;;;;;
2023/06/26 02:32:35;;;;;;;10.4;6.2;;;;;;;14.55;83.33;;;;;
2023/06/26 02:42:35;;;;;;;10.4;6.2;;;;;;;14.62;83.08;;;;;
2023/06/26 02:53:35;;;;;;;10.4;6.2;;;;;;;14.67;82.73;;;;;
2023/06/26 03:03:40;;;;;;;10.3;6.2;;;;;;;14.69;83.39;;;;;
2023/06/26 03:14:35;;;;;;;10.3;6.2;;;;;;;14.9;82.37;;;;;
2023/06/26 03:25:35;;;;;;;10.3;6.2;;;;;;;15.02;81.76;;;;;
2023/06/26 03:35:35;;;;;;;8.2;5.4;;;;;;;15.2;81.34;;;;;
2023/06/26 03:45:35;;;;;;;8.2;5.4;;;;;;;15.38;80.9;;;;;
2023/06/26 03:56:35;;;;;;;8.2;5.4;;;;;;;15.66;80.38;;;;;
2023/06/26 04:06:35;;;;;;;9;6;;;;;;;15.81;79.84;;;;;
2023/06/26 04:17:35;;;;;;;9;6;;;;;;;15.99;79.37;;;;;
2023/06/26 04:27:35;;;;;;;10.2;6.5;;;;;;;16.06;79.12;;;;;
2023/06/26 04:38:35;;;;;;;10.2;6.5;;;;;;;16.5;77.87;;;;;
2023/06/26 04:49:35;;;;;;;10.2;6.5;;;;;;;16.92;76.47;;;;;
2023/06/26 04:59:35;;;;;;;10.1;6.4;;;;;;;17.22;75.81;;;;;
2023/06/26 05:09:35;;;;;;;10.1;6.4;;;;;;;17.61;75.22;;;;;
2023/06/26 05:19:35;;;;;;;10.1;6.4;;;;;;;17.84;74.09;;;;;
2023/06/26 05:30:35;;;;;;;14.2;8.1;;;;;;;18.06;73.17;;;;;
2023/06/26 05:40:35;;;;;;;14.2;8.1;;;;;;;18.31;73.14;;;;;
2023/06/26 05:50:35;;;;;;;14.2;8.1;;;;;;;18.82;72.2;;;;;
2023/06/26 06:00:35;;;;;;;12.3;8.6;;;;;;;19.08;69.83;;;;;
2023/06/26 06:11:35;;;;;;;12.3;8.6;;;;;;;19.27;69.41;;;;;
2023/06/26 06:21:35;;;;;;;12.3;8.6;;;;;;;19.66;68.88;;;;;
2023/06/26 06:32:35;;;;;;;11.5;8.5;;;;;;;19.96;68.16;;;;;
2023/06/26 06:42:35;;;;;;;11.5;8.5;;;;;;;20.31;65.69;;;;;
2023/06/26 06:53:35;;;;;;;11.5;8.5;;;;;;;20.76;64.53;;;;;
2023/06/26 07:03:35;;;;;;;10.5;6.9;;;;;;;21.11;62.28;;;;;
2023/06/26 07:14:35;;;;;;;10.5;6.9;;;;;;;21.28;60.12;;;;;
2023/06/26 07:25:35;;;;;;;10.5;6.9;;;;;;;21.6;58.41;;;;;
2023/06/26 07:35:35;;;;;;;12;7.2;;;;;;;21.93;58.74;;;;;
2023/06/26 07:45:35;;;;;;;12;7.2;;;;;;;22.24;56.47;;;;;
2023/06/26 07:56:35;;;;;;;12;7.2;;;;;;;22.61;56.21;;;;;
2023/06/26 08:07:35;;;;;;;11.2;6.1;;;;;;;22.95;56.4;;;;;
2023/06/26 08:17:35;;;;;;;11.2;6.1;;;;;;;23.23;50.65;;;;;
2023/06/26 08:28:35;;;;;;;8.5;5.5;;;;;;;23.39;51.17;;;;;
2023/06/26 08:38:35;;;;;;;8.5;5.5;;;;;;;23.61;53.66;;;;;
2023/06/26 08:49:35;;;;;;;8.5;5.5;;;;;;;23.84;49.13;;;;;
2023/06/26 08:59:35;;;;;;;9.2;4.7;;;;;;;24.2;48.13;;;;;
2023/06/26 09:10:35;;;;;;;9.2;4.7;;;;;;;24.41;44.98;;;;;
2023/06/26 09:21:35;;;;;;;9.2;4.7;;;;;;;24.95;47.84;;;;;
2023/06/26 09:32:35;;;;;;;8;4.3;;;;;;;25.72;46.58;;;;;
2023/06/26 09:42:35;;;;;;;8;4.3;;;;;;;26.08;43.44;;;;;
2023/06/26 09:52:35;;;;;;;8;4.3;;;;;;;26.67;44.13;;;;;
2023/06/26 10:03:35;;;;;;;7.5;3.7;;;;;;;26.41;42.48;;;;;
2023/06/26 10:14:35;;;;;;;7.5;3.7;;;;;;;26.46;42.52;;;;;
2023/06/26 10:24:35;;;;;;;7.5;3.7;;;;;;;26.46;43.57;;;;;
2023/06/26 10:34:35;;;;;;;8.2;4.5;;;;;;;26.9;42.36;;;;;
2023/06/26 10:44:35;;;;;;;8.2;4.5;;;;;;;27.29;40.01;;;;;
2023/06/26 10:55:35;;;;;;;8.2;4.5;;;;;;;26.98;41.97;;;;;
2023/06/26 11:06:35;;;;;;;6.8;3.5;;;;;;;27.53;40.24;;;;;
2023/06/26 11:16:35;;;;;;;6.8;3.5;;;;;;;27.07;41.17;;;;;
2023/06/26 11:27:35;;;;;;;6.8;3.5;;;;;;;27.4;41.38;;;;;
2023/06/26 11:38:36;;;;;;;9;4.8;;;;;;;26.89;43.51;;;;;
2023/06/26 11:49:35;;;;;;;9;4.8;;;;;;;27.51;38.6;;;;;
2023/06/26 12:00:35;;;;;;;6.9;4.4;;;;;;;27.04;39.19;;;;;
2023/06/26 12:10:35;;;;;;;6.9;4.4;;;;;;;26.97;40.64;;;;;
2023/06/26 12:20:35;;;;;;;6.9;4.4;;;;;;;27.38;38.49;;;;;
2023/06/26 12:31:35;;;;;;;7.9;4.2;;;;;;;28.24;43;;;;;
2023/06/26 12:42:35;;;;;;;7.9;4.2;;;;;;;28.52;38.74;;;;;
2023/06/26 12:52:35;;;;;;;7.9;4.2;;;;;;;28.54;37.79;;;;;
2023/06/26 13:02:35;;;;;;;10;4.3;;;;;;;27.87;39.61;;;;;
2023/06/26 13:13:35;;;;;;;10;4.3;;;;;;;27.92;37.89;;;;;
2023/06/26 13:23:35;;;;;;;10;4.3;;;;;;;27.86;37.73;;;;;
2023/06/26 13:33:35;;;;;;;7.3;4.7;;;;;;;27.9;40.07;;;;;
2023/06/26 13:44:35;;;;;;;7.3;4.7;;;;;;;28.55;39.28;;;;;
2023/06/26 13:54:35;;;;;;;7.3;4.7;;;;;;;28.36;36.9;;;;;
2023/06/26 14:04:36;;;;;;;11.4;5.2;;;;;;;28.48;40.44;;;;;
2023/06/26 14:14:35;;;;;;;11.4;5.2;;;;;;;29.17;41.16;;;;;
2023/06/26 14:24:35;;;;;;;11.4;5.2;;;;;;;29.81;38.57;;;;;
2023/06/26 14:34:35;;;;;;;7.4;4.4;;;;;;;29.96;36.16;;;;;
2023/06/26 14:44:35;;;;;;;7.4;4.4;;;;;;;29.35;37.17;;;;;
2023/06/26 14:54:36;;;;;;;7.4;4.4;;;;;;;30.31;37.27;;;;;
2023/06/26 15:05:35;;;;;;;8.2;4.7;;;;;;;32.11;32.58;;;;;
2023/06/26 15:16:35;;;;;;;8.2;4.7;;;;;;;33.86;29.1;;;;;
2023/06/26 15:27:35;;;;;;;8.2;4.7;;;;;;;34.98;29.48;;;;;
2023/06/26 15:37:35;;;;;;;6.8;4.1;;;;;;;35.51;27.06;;;;;
2023/06/26 15:48:35;;;;;;;6.8;4.1;;;;;;;36.37;27.02;;;;;
2023/06/26 15:58:35;;;;;;;6;3.9;;;;;;;36.57;24.74;;;;;
2023/06/26 16:09:35;;;;;;;6;3.9;;;;;;;35.96;26.91;;;;;
2023/06/26 16:19:35;;;;;;;6;3.9;;;;;;;36.55;25.85;;;;;
2023/06/26 16:30:35;;;;;;;6.3;3.3;;;;;;;36.64;25.78;;;;;
2023/06/26 16:40:35;;;;;;;6.3;3.3;;;;;;;37.29;25.91;;;;;
2023/06/26 16:51:35;;;;;;;6.3;3.3;;;;;;;37.8;25.71;;;;;
2023/06/26 17:02:35;;;;;;;6.7;3.4;;;;;;;37.05;25.04;;;;;
2023/06/26 17:12:35;;;;;;;6.7;3.4;;;;;;;34.59;28.29;;;;;
2023/06/26 17:22:35;;;;;;;6.7;3.4;;;;;;;31.99;31.46;;;;;
2023/06/26 17:33:35;;;;;;;5.8;3.4;;;;;;;32.07;32.7;;;;;
2023/06/26 17:43:35;;;;;;;5.8;3.4;;;;;;;33.53;31.44;;;;;
2023/06/26 17:54:35;;;;;;;5.8;3.4;;;;;;;33.83;31.02;;;;;
2023/06/26 18:04:35;;;;;;;7.6;4.1;;;;;;;33.02;32.06;;;;;
2023/06/26 18:14:35;;;;;;;7.6;4.1;;;;;;;30.28;35.58;;;;;
2023/06/26 18:25:35;;;;;;;7.6;4.1;;;;;;;27.94;38.43;;;;;
2023/06/26 18:36:35;;;;;;;7;4.4;;;;;;;26.01;43;;;;;
2023/06/26 18:46:35;;;;;;;7;4.4;;;;;;;24.56;47.6;;;;;
2023/06/26 18:56:35;;;;;;;7;4.4;;;;;;;23.29;50.75;;;;;
2023/06/26 19:07:35;;;;;;;9.2;6;;;;;;;22.34;51.66;;;;;
2023/06/26 19:18:36;;;;;;;9.2;6;;;;;;;21.72;52.88;;;;;
2023/06/26 19:28:35;;;;;;;9.2;6;;;;;;;21.17;54.8;;;;;
2023/06/26 19:38:35;;;;;;;9.7;6.3;;;;;;;20.73;56.45;;;;;
2023/06/26 19:48:36;;;;;;;9.7;6.3;;;;;;;20.46;56.9;;;;;
2023/06/26 19:59:35;;;;;;;8.7;5.8;;;;;;;20.11;59.68;;;;;
2023/06/26 20:09:35;;;;;;;8.7;5.8;;;;;;;19.89;60.21;;;;;
2023/06/26 20:20:35;;;;;;;8.7;5.8;;;;;;;19.77;59.49;;;;;
2023/06/26 20:30:35;;;;;;;8.6;5.1;;;;;;;19.8;58.42;;;;;
2023/06/26 20:41:35;;;;;;;8.6;5.1;;;;;;;19.83;58.19;;;;;
2023/06/26 20:52:35;;;;;;;8.6;5.1;;;;;;;19.87;57.3;;;;;
2023/06/26 21:03:35;;;;;;;7.1;5.3;;;;;;;19.68;59.13;;;;;
2023/06/26 21:13:35;;;;;;;7.1;5.3;;;;;;;19.56;59.13;;;;;
2023/06/26 21:23:35;;;;;;;7.1;5.3;;;;;;;19.45;59.5;;;;;
2023/06/26 21:34:35;;;;;;;9.6;6.2;;;;;;;19.23;59.73;;;;;
2023/06/26 21:44:35;;;;;;;9.6;6.2;;;;;;;19.05;59.88;;;;;
2023/06/26 21:54:35;;;;;;;9.6;6.2;;;;;;;19.03;60.37;;;;;
2023/06/26 22:05:35;;;;;;;8.6;5.5;;;;;;;18.77;64.04;;;;;
2023/06/26 22:15:35;;;;;;;8.6;5.5;;;;;;;18.39;64.48;;;;;
2023/06/26 22:25:35;;;;;;;8.6;5.5;;;;;;;18.07;66.47;;;;;
2023/06/26 22:36:35;;;;;;;10.5;7;;;;;;;17.84;69.4;;;;;
2023/06/26 22:47:35;;;;;;;10.5;7;;;;;;;17.65;69.49;;;;;
2023/06/26 22:57:35;;;;;;;10.5;7;;;;;;;17.6;69.98;;;;;
2023/06/26 23:08:35;;;;;;;10.9;7.7;;;;;;;17.58;69.15;;;;;
2023/06/26 23:19:37;;;;;;;10.9;7.7;;;;;;;17.52;69.76;;;;;
2023/06/26 23:29:35;;;;;;;14.7;9.8;;;;;;;17.43;72.53;;;;;
2023/06/26 23:40:37;;;;;;;14.7;9.8;;;;;;;17.35;72.18;;;;;
2023/06/26 23:51:35;;;;;;;14.7;9.8;;;;;;;17.33;72.01;;;;;
